Terminal Aerodrome Forecast
Issued by NWS Binghamton, NY

Current Version | Previous Version | Text Only | Print | Product List | Glossary On
Versions: 1 2 3 4 5 6 7 8 9 10 11 12 13 14 15 16 17 18 19 20
000
FTUS41 KBGM 011700
TAFBGM
TAF
KBGM 011731Z 0118/0218 08006KT P6SM BKN025
     FM012000 08006KT P6SM BKN035
      TEMPO 0208/0212 2SM BR BKN008
     FM021400 09005KT P6SM BKN030=

USA.gov is the U.S. government's official web portal to all federal, state and local government web resources and services.